Middleton, WI

9:04 AM CDT on September 28, 2016 (GMT -0500)
Middleton

Weather History for KC29 - March, 2013

Change the Weather History Date:

Wednesday, March 6, 2013

  Actual Average (KMSN) Record (KMSN)
Temperature  
Mean Temperature 29 °F 30 °F  
Max Temperature 33 °F 38 °F 69 °F (2000)
Min Temperature 22 °F 21 °F -14 °F (1960)
Degree Days  
Heating Degree Days 36 35  
Month to date heating degree days 216  
Since 1 July heating degree days 5702  
Cooling Degree Days 0 0  
Month to date cooling degree days 0  
Year to date cooling degree days 0  
Moisture  
Dew Point 22 °F    
Average Humidity 74    
Maximum Humidity 81    
Minimum Humidity 67    
Precipitation  
Precipitation 0.00 in 0.07 in 1.86 in (1973)
Month to date precipitation 0.37  
Year to date precipitation 3.05  
Snow  
Snow 0.00 in 0.30 in 5.80 in (1924)
Month to date snowfall 1.7  
Since 1 July snowfall 42.8  
Snow Depth -    
Sea Level Pressure  
Sea Level Pressure 30.25 in    
Wind  
Wind Speed 11 mph (NW)    
Max Wind Speed 15 mph    
Max Gust Speed 18 mph    
Visibility 10 miles    
Events      
T = Trace of Precipitation, MM = Missing Value Source: NWS Daily Summary

Daily Weather History Graph

Daily Weather History Graph

Search for Another Location

Airport or City:

Trip Planner

Search our weather history database for the weather conditions in past years. The results will help you decide how hot, cold, wet, or windy it might be!

Date:

Astronomy

Mar. 06, 2013 Rise Set
Actual Time 6:25 AM CST 5:53 PM CST
Civil Twilight 5:56 AM CST 6:22 PM CST
Nautical Twilight 5:24 AM CST 6:55 PM CST
Astronomical Twilight 4:51 AM CST 7:28 PM CST
Moon 2:41 AM CST (3/6) 12:29 PM CST (3/6)
Length of Visible Light 12h 25m
Length of Day
11h 28m
Waning Crescent, 29% of the Moon is Illuminated
Mar 6
Waning Crescent
Mar 11
New
Mar 19
First Quarter
Mar 27
Full
Apr 2
Last Quarter

Hourly Weather History & Observations

Time (CST) Temp. Windchill Dew Point Humidity Pressure Visibility Wind Dir Wind Speed Gust Speed Precip Events Conditions
12:15 AM 28.2 °F 18.3 °F 22.8 °F 80% 30.11 in 10.0 mi NNW 11.5 mph - N/A   Overcast
12:35 AM 28.4 °F 18.0 °F 22.6 °F 79% 30.12 in 10.0 mi NNW 12.7 mph - N/A   Overcast
12:55 AM 28.2 °F 17.7 °F 22.6 °F 80% 30.12 in 10.0 mi NNW 12.7 mph - N/A   Overcast
1:15 AM 28.2 °F 18.3 °F 22.6 °F 80% 30.13 in 10.0 mi NNW 11.5 mph - N/A   Overcast
1:35 AM 28.0 °F 18.1 °F 22.5 °F 80% 30.13 in 10.0 mi North 11.5 mph - N/A   Overcast
1:55 AM 27.9 °F 16.8 °F 22.1 °F 79% 30.13 in 10.0 mi North 13.8 mph - N/A   Overcast
2:15 AM 27.9 °F 16.3 °F 22.1 °F 79% 30.14 in 10.0 mi North 15.0 mph - N/A   Overcast
2:35 AM 27.5 °F 16.8 °F 21.7 °F 79% 30.15 in 10.0 mi North 12.7 mph - N/A   Overcast
2:55 AM 27.1 °F 16.9 °F 21.6 °F 80% 30.15 in 10.0 mi North 11.5 mph - N/A   Overcast
3:15 AM 26.2 °F 15.8 °F 20.8 °F 80% 30.16 in 10.0 mi NNW 11.5 mph - N/A   Overcast
3:35 AM 26.6 °F 16.2 °F 21.2 °F 80% 30.17 in 10.0 mi NNW 11.5 mph - N/A   Overcast
3:55 AM 25.7 °F 15.1 °F 20.5 °F 81% 30.17 in 10.0 mi NNW 11.5 mph - N/A   Overcast
4:15 AM 26.6 °F 16.8 °F 21.2 °F 80% 30.17 in 10.0 mi NNW 10.4 mph - N/A   Overcast
4:35 AM 26.6 °F 16.8 °F 21.2 °F 80% 30.18 in 10.0 mi NNW 10.4 mph - N/A   Overcast
4:55 AM 26.4 °F 16.6 °F 21.2 °F 81% 30.19 in 10.0 mi NNW 10.4 mph - N/A   Overcast
5:15 AM 26.6 °F 16.2 °F 21.2 °F 80% 30.20 in 10.0 mi NW 11.5 mph - N/A   Overcast
5:35 AM 26.6 °F 15.7 °F 21.2 °F 80% 30.20 in 10.0 mi NW 12.7 mph - N/A   Overcast
6:15 AM 26.8 °F 15.9 °F 21.4 °F 80% 30.22 in 10.0 mi NNW 12.7 mph - N/A   Overcast
6:35 AM 27.0 °F 16.7 °F 21.2 °F 79% 30.23 in 10.0 mi NW 11.5 mph - N/A   Overcast
6:55 AM 27.1 °F 16.9 °F 21.6 °F 80% 30.23 in 10.0 mi NW 11.5 mph - N/A   Overcast
7:15 AM 27.3 °F 17.1 °F 21.7 °F 80% 30.23 in 10.0 mi NNW 11.5 mph - N/A   Overcast
7:35 AM 27.3 °F 16.6 °F 21.7 °F 80% 30.24 in 10.0 mi NNW 12.7 mph - N/A   Overcast
7:55 AM 27.5 °F 16.3 °F 21.6 °F 78% 30.25 in 10.0 mi NW 13.8 mph 18.4 mph N/A   Overcast
8:15 AM 27.9 °F 17.8 °F 21.9 °F 78% 30.25 in 10.0 mi NW 11.5 mph - N/A   Overcast
8:35 AM 28.4 °F 19.1 °F 21.9 °F 77% 30.25 in 10.0 mi NW 10.4 mph - N/A   Overcast
8:55 AM 28.2 °F 16.8 °F 21.6 °F 76% 30.27 in 10.0 mi NNW 15.0 mph - N/A   Overcast
9:15 AM 28.4 °F 19.1 °F 21.7 °F 76% 30.27 in 10.0 mi NNW 10.4 mph - N/A   Overcast
9:35 AM 29.1 °F 20.0 °F 21.9 °F 74% 30.27 in 10.0 mi NNW 10.4 mph - N/A   Overcast
9:55 AM 29.3 °F 19.6 °F 22.1 °F 75% 30.27 in 10.0 mi NW 11.5 mph - N/A   Overcast
10:15 AM 29.8 °F 20.3 °F 22.3 °F 73% 30.27 in 10.0 mi NW 11.5 mph - N/A   Overcast
10:35 AM 30.2 °F 20.8 °F 22.6 °F 73% 30.27 in 10.0 mi NNW 11.5 mph - N/A   Overcast
10:55 AM 30.7 °F 21.4 °F 23.0 °F 73% 30.27 in 10.0 mi NW 11.5 mph - N/A   Overcast
11:15 AM 30.9 °F 22.2 °F 23.0 °F 72% 30.28 in 10.0 mi NW 10.4 mph - N/A   Overcast
11:35 AM 31.1 °F 21.9 °F 23.4 °F 73% 30.28 in 10.0 mi NW 11.5 mph - N/A   Overcast
11:55 AM 31.5 °F 22.9 °F 23.7 °F 73% 30.28 in 10.0 mi NNW 10.4 mph 16.1 mph N/A   Overcast
12:15 PM 32.0 °F 23.0 °F 23.5 °F 71% 30.27 in 10.0 mi NW 11.5 mph - N/A   Overcast
12:35 PM 32.0 °F 24.2 °F 23.5 °F 71% 30.27 in 10.0 mi NW 9.2 mph - N/A   Overcast
12:55 PM 32.4 °F 23.5 °F 23.2 °F 69% 30.27 in 10.0 mi NW 11.5 mph - N/A   Overcast
1:15 PM 32.7 °F 23.9 °F 23.4 °F 68% 30.26 in 10.0 mi NW 11.5 mph - N/A   Overcast
1:35 PM 32.9 °F 25.3 °F 23.7 °F 69% 30.26 in 10.0 mi NW 9.2 mph - N/A   Overcast
1:55 PM 33.1 °F 26.1 °F 23.4 °F 67% 30.26 in 10.0 mi NW 8.1 mph - N/A   Overcast
2:15 PM 33.3 °F 26.4 °F 23.4 °F 67% 30.25 in 10.0 mi NW 8.1 mph - N/A   Overcast
2:35 PM 33.4 °F 27.3 °F 23.7 °F 68% 30.26 in 10.0 mi NW 6.9 mph - N/A   Overcast
2:55 PM 33.4 °F 25.4 °F 23.5 °F 67% 30.26 in 10.0 mi NW 10.4 mph - N/A   Overcast
3:15 PM 33.3 °F 25.7 °F 23.2 °F 67% 30.27 in 10.0 mi NW 9.2 mph - N/A   Overcast
3:35 PM 33.1 °F 24.9 °F 23.2 °F 67% 30.27 in 10.0 mi NNW 10.4 mph - N/A   Overcast
3:55 PM 32.9 °F 26.7 °F 23.4 °F 68% 30.27 in 10.0 mi NW 6.9 mph - N/A   Overcast
4:15 PM 32.5 °F 24.8 °F 23.0 °F 68% 30.27 in 10.0 mi NW 9.2 mph - N/A   Overcast
4:35 PM 32.4 °F 25.3 °F 22.5 °F 67% 30.27 in 10.0 mi NW 8.1 mph - N/A   Overcast
4:55 PM 32.0 °F 24.8 °F 22.8 °F 69% 30.27 in 10.0 mi NW 8.1 mph - N/A   Overcast
5:15 PM 31.8 °F 24.6 °F 22.5 °F 68% 30.27 in 10.0 mi NW 8.1 mph - N/A   Overcast
5:35 PM 31.6 °F 24.4 °F 22.1 °F 68% 30.28 in 10.0 mi WNW 8.1 mph - N/A   Overcast
5:55 PM 31.5 °F 24.9 °F 21.9 °F 68% 30.28 in 10.0 mi WNW 6.9 mph - N/A   Overcast
6:15 PM 31.1 °F 25.4 °F 21.7 °F 68% 30.28 in 10.0 mi WNW 5.8 mph - N/A   Overcast
6:35 PM 30.9 °F 24.3 °F 21.6 °F 68% 30.29 in 10.0 mi WNW 6.9 mph - N/A   Overcast
6:55 PM 30.7 °F 23.3 °F 21.9 °F 70% 30.29 in 10.0 mi WNW 8.1 mph - N/A   Overcast
7:15 PM 30.2 °F 23.4 °F 21.9 °F 71% 30.29 in 10.0 mi WNW 6.9 mph - N/A   Overcast
7:35 PM 30.2 °F 24.3 °F 21.6 °F 70% 30.29 in 10.0 mi WNW 5.8 mph - N/A   Overcast
7:55 PM 30.2 °F 23.4 °F 21.6 °F 70% 30.29 in 10.0 mi WNW 6.9 mph - N/A   Overcast
8:35 PM 29.8 °F 23.0 °F 21.7 °F 72% 30.30 in 10.0 mi NW 6.9 mph - N/A   Overcast
8:55 PM 29.7 °F 23.7 °F 21.6 °F 72% 30.30 in 10.0 mi NW 5.8 mph - N/A   Overcast
9:15 PM 29.8 °F 23.9 °F 21.4 °F 71% 30.30 in 10.0 mi NW 5.8 mph - N/A   Overcast
9:35 PM 29.5 °F 22.5 °F 21.2 °F 71% 30.31 in 10.0 mi NW 6.9 mph - N/A   Overcast
9:55 PM 29.7 °F 22.0 °F 21.0 °F 70% 30.31 in 10.0 mi WNW 8.1 mph - N/A   Overcast
10:15 PM 29.3 °F 23.2 °F 20.7 °F 70% 30.31 in 10.0 mi WNW 5.8 mph - N/A   Overcast
10:35 PM 28.8 °F 25.0 °F 21.0 °F 73% 30.31 in 10.0 mi NW 3.5 mph - N/A   Overcast
10:55 PM 28.0 °F 24.2 °F 20.7 °F 74% 30.31 in 10.0 mi NNW 3.5 mph - N/A   Overcast
11:15 PM 28.2 °F 23.1 °F 19.4 °F 70% 30.30 in 10.0 mi NNW 4.6 mph - N/A   Overcast
11:35 PM 25.3 °F 21.1 °F 17.6 °F 72% 30.31 in 10.0 mi North 3.5 mph - N/A   Overcast
11:55 PM 22.1 °F 17.4 °F 16.5 °F 79% 30.31 in 10.0 mi NNW 3.5 mph - N/A   Mostly Cloudy